Time;durP1;ratioP1;P1;durP2;ratioP2;P2;SDS_P1;SDS_P2;PMS_P1;PMS_P2;Temp;Humidity;BMP_temperature;BMP_pressure;BME280_temperature;BME280_humidity;BME280_pressure;Samples;Min_cycle;Max_cycle;Signal;HPM_P1;HPM_P2
2022/09/26 00:00:25;;;;;;;10.40;7.05;;;;;;;;;;5089154;28;20048;-51
2022/09/26 00:02:55;;;;;;;11.82;7.82;;;;;;;;;;5098356;28;20102;-53
2022/09/26 00:05:35;;;;;;;12.52;7.10;;;;;;;;;;5097928;28;20052;-50
2022/09/26 00:08:05;;;;;;;12.52;7.95;;;;;;;;;;5098267;28;20083;-53
2022/09/26 00:10:35;;;;;;;11.65;7.03;;;;;;;;;;5098871;28;20048;-51
2022/09/26 00:13:04;;;;;;;13.88;7.32;;;;;;;;;;5093932;28;20040;-51
2022/09/26 00:15:30;;;;;;;11.60;7.30;;;;;;;;;;5098488;28;20052;-51
2022/09/26 00:18:00;;;;;;;11.25;7.45;;;;;;;;;;5097825;28;20067;-51
2022/09/26 00:20:36;;;;;;;9.82;7.05;;;;;;;;;;5097608;28;20083;-51
2022/09/26 00:23:04;;;;;;;11.80;7.57;;;;;;;;;;5097587;28;20052;-51
2022/09/26 00:25:33;;;;;;;15.30;8.25;;;;;;;;;;5097036;28;20079;-51
2022/09/26 00:28:03;;;;;;;15.13;7.68;;;;;;;;;;5088957;28;20109;-52
2022/09/26 00:30:32;;;;;;;13.73;7.70;;;;;;;;;;5089753;28;20056;-51
2022/09/26 00:32:59;;;;;;;12.20;7.28;;;;;;;;;;5090635;28;20048;-50
2022/09/26 00:35:26;;;;;;;10.77;6.82;;;;;;;;;;5094962;28;20056;-51
2022/09/26 00:38:04;;;;;;;12.50;7.50;;;;;;;;;;5092709;28;20063;-51
2022/09/26 00:40:34;;;;;;;11.40;7.50;;;;;;;;;;5097691;28;20480;-51
2022/09/26 00:43:03;;;;;;;14.57;8.35;;;;;;;;;;5097169;28;20074;-54
2022/09/26 00:45:32;;;;;;;14.95;8.38;;;;;;;;;;5091521;28;20044;-50
2022/09/26 00:48:09;;;;;;;16.88;8.85;;;;;;;;;;5090567;28;20079;-50
2022/09/26 00:50:48;;;;;;;14.88;8.98;;;;;;;;;;5096414;28;20059;-49
2022/09/26 00:53:30;;;;;;;17.25;8.90;;;;;;;;;;5092855;28;20051;-50
2022/09/26 00:56:01;;;;;;;17.38;10.02;;;;;;;;;;5095889;28;20046;-53
2022/09/26 00:58:32;;;;;;;16.15;8.60;;;;;;;;;;5097669;28;20099;-49
2022/09/26 01:01:02;;;;;;;18.95;9.98;;;;;;;;;;5096907;28;20056;-50
2022/09/26 01:03:30;;;;;;;17.38;10.23;;;;;;;;;;5097032;28;20121;-49
2022/09/26 01:05:59;;;;;;;19.35;11.30;;;;;;;;;;5095174;28;20059;-52
2022/09/26 01:08:31;;;;;;;19.27;10.77;;;;;;;;;;5096213;28;20074;-50
2022/09/26 01:11:01;;;;;;;14.25;8.70;;;;;;;;;;5091456;28;20460;-51
2022/09/26 01:13:30;;;;;;;18.98;9.38;;;;;;;;;;5081036;28;20456;-52
2022/09/26 01:15:56;;;;;;;20.02;10.40;;;;;;;;;;5088553;28;20051;-51
2022/09/26 01:18:26;;;;;;;15.52;9.52;;;;;;;;;;5088044;28;20048;-51
2022/09/26 01:20:58;;;;;;;13.80;8.75;;;;;;;;;;5093831;28;20043;-50
2022/09/26 01:23:44;;;;;;;13.90;7.93;;;;;;;;;;5092954;28;20456;-50
2022/09/26 01:26:27;;;;;;;12.73;8.27;;;;;;;;;;5090584;28;20059;-49
2022/09/26 01:29:12;;;;;;;14.85;7.95;;;;;;;;;;5068169;28;20076;-49
2022/09/26 01:32:47;;;;;;;14.50;8.35;;;;;;;;;;5093534;28;20047;-49
2022/09/26 01:34:41;;;;;;;13.45;8.27;;;;;;;;;;5094073;28;20047;-49
2022/09/26 01:37:14;;;;;;;13.15;8.00;;;;;;;;;;5094053;28;20131;-50
2022/09/26 01:39:58;;;;;;;13.30;8.60;;;;;;;;;;5093173;28;20036;-52
2022/09/26 01:42:26;;;;;;;13.43;8.88;;;;;;;;;;5094625;28;20044;-49
2022/09/26 01:45:03;;;;;;;13.65;8.02;;;;;;;;;;5079564;28;20059;-52
2022/09/26 01:47:34;;;;;;;15.80;8.55;;;;;;;;;;5095085;28;20051;-49
2022/09/26 01:50:06;;;;;;;13.73;8.57;;;;;;;;;;5094702;28;20051;-49
2022/09/26 01:52:37;;;;;;;14.13;8.90;;;;;;;;;;5093841;28;20049;-49
2022/09/26 01:55:07;;;;;;;12.98;8.30;;;;;;;;;;5091275;28;20048;-50
2022/09/26 01:57:44;;;;;;;15.23;8.65;;;;;;;;;;5094504;28;20056;-49
2022/09/26 02:00:12;;;;;;;12.00;7.57;;;;;;;;;;5094375;28;20059;-49
2022/09/26 02:02:42;;;;;;;13.02;8.65;;;;;;;;;;5094501;28;20106;-50
2022/09/26 02:05:13;;;;;;;15.68;8.15;;;;;;;;;;5093917;28;20044;-49
2022/09/26 02:07:42;;;;;;;13.45;8.45;;;;;;;;;;5093689;28;20044;-50
2022/09/26 02:10:22;;;;;;;13.63;9.23;;;;;;;;;;5094360;28;20067;-50
2022/09/26 02:12:53;;;;;;;12.45;8.70;;;;;;;;;;5086905;28;20536;-50
2022/09/26 02:15:24;;;;;;;13.73;8.32;;;;;;;;;;5093978;28;20051;-50
2022/09/26 02:18:01;;;;;;;13.68;8.70;;;;;;;;;;5087015;28;20051;-50
2022/09/26 02:20:38;;;;;;;12.30;8.38;;;;;;;;;;5089954;28;20086;-50
2022/09/26 02:23:09;;;;;;;12.25;8.30;;;;;;;;;;5093584;28;20051;-51
2022/09/26 02:25:36;;;;;;;13.18;8.40;;;;;;;;;;5093479;28;20048;-49
2022/09/26 02:28:03;;;;;;;11.50;7.45;;;;;;;;;;5093420;28;20051;-52
2022/09/26 02:30:33;;;;;;;11.63;7.35;;;;;;;;;;5093969;28;20044;-51
2022/09/26 02:33:08;;;;;;;15.73;8.20;;;;;;;;;;5080468;28;20051;-50
2022/09/26 02:35:56;;;;;;;11.83;8.00;;;;;;;;;;5094179;28;20147;-51
2022/09/26 02:38:23;;;;;;;15.15;8.43;;;;;;;;;;5085128;28;20301;-49
2022/09/26 02:40:58;;;;;;;13.63;8.63;;;;;;;;;;5093539;28;20055;-53
2022/09/26 02:43:29;;;;;;;;;;;;;;;;;;5081411;28;20070;-52
2022/09/26 02:46:05;;;;;;;11.80;7.15;;;;;;;;;;5093496;28;19930;-49
2022/09/26 02:48:42;;;;;;;13.73;7.57;;;;;;;;;;5080707;28;20083;-51
2022/09/26 02:51:16;;;;;;;12.27;8.23;;;;;;;;;;5093235;28;20059;-53
2022/09/26 02:53:58;;;;;;;13.63;8.18;;;;;;;;;;5087892;28;20058;-49
2022/09/26 02:56:37;;;;;;;15.02;8.00;;;;;;;;;;5093232;28;20500;-51
2022/09/26 02:59:07;;;;;;;15.95;8.85;;;;;;;;;;5093840;28;20048;-49
2022/09/26 03:01:38;;;;;;;12.73;8.15;;;;;;;;;;5092482;28;20055;-50
2022/09/26 03:04:17;;;;;;;14.07;8.57;;;;;;;;;;5093514;28;20079;-49
2022/09/26 03:06:47;;;;;;;14.50;8.05;;;;;;;;;;5087082;28;20052;-53
2022/09/26 03:09:21;;;;;;;16.75;8.18;;;;;;;;;;5091449;28;20052;-49
2022/09/26 03:11:49;;;;;;;15.20;7.90;;;;;;;;;;5092567;28;20609;-50
2022/09/26 03:14:25;;;;;;;14.40;8.52;;;;;;;;;;5093046;28;20469;-49
2022/09/26 03:16:54;;;;;;;16.45;7.82;;;;;;;;;;5092663;28;20781;-50
2022/09/26 03:19:30;;;;;;;16.73;9.18;;;;;;;;;;5082283;28;20449;-50
2022/09/26 03:21:58;;;;;;;11.70;7.50;;;;;;;;;;5093137;28;20056;-50
2022/09/26 03:24:26;;;;;;;13.07;8.10;;;;;;;;;;5080875;28;20128;-50
2022/09/26 03:26:55;;;;;;;11.07;7.50;;;;;;;;;;5091947;28;20095;-49
2022/09/26 03:29:23;;;;;;;12.25;7.97;;;;;;;;;;5092101;28;20063;-49
2022/09/26 03:31:51;;;;;;;11.93;7.55;;;;;;;;;;5092865;28;20512;-51
2022/09/26 03:34:22;;;;;;;16.05;8.25;;;;;;;;;;5092773;28;20044;-50
2022/09/26 03:36:53;;;;;;;12.70;8.40;;;;;;;;;;5092579;28;20126;-49
2022/09/26 03:39:23;;;;;;;11.07;7.03;;;;;;;;;;5088647;28;20116;-49
2022/09/26 03:41:51;;;;;;;11.23;7.00;;;;;;;;;;5092282;28;20058;-49
2022/09/26 03:44:20;;;;;;;12.13;7.30;;;;;;;;;;5093022;28;20055;-53
2022/09/26 03:46:50;;;;;;;14.07;7.40;;;;;;;;;;5083096;28;20087;-50
2022/09/26 03:49:20;;;;;;;14.73;8.70;;;;;;;;;;5092564;28;20395;-51
2022/09/26 03:52:04;;;;;;;11.98;8.43;;;;;;;;;;5092472;28;20048;-50
2022/09/26 03:54:31;;;;;;;15.98;9.65;;;;;;;;;;5086862;28;20079;-52
2022/09/26 03:56:59;;;;;;;15.95;10.10;;;;;;;;;;5092827;28;20048;-49
2022/09/26 03:59:27;;;;;;;17.90;10.18;;;;;;;;;;5092468;28;20044;-49
2022/09/26 04:01:54;;;;;;;17.90;9.43;;;;;;;;;;5092540;28;20040;-49
2022/09/26 04:04:25;;;;;;;16.17;8.98;;;;;;;;;;5092746;28;20071;-52
2022/09/26 04:06:55;;;;;;;14.32;8.90;;;;;;;;;;5092337;28;20051;-53
2022/09/26 04:09:23;;;;;;;17.55;10.90;;;;;;;;;;5092819;28;20055;-50
2022/09/26 04:11:53;;;;;;;17.30;10.38;;;;;;;;;;5091866;28;20156;-49
2022/09/26 04:14:22;;;;;;;13.30;9.10;;;;;;;;;;5092791;28;20051;-50
2022/09/26 04:16:52;;;;;;;14.90;9.40;;;;;;;;;;5091987;28;20052;-51
2022/09/26 04:19:18;;;;;;;22.02;12.32;;;;;;;;;;5078188;28;20059;-50
2022/09/26 04:21:50;;;;;;;15.65;9.32;;;;;;;;;;5091899;28;20044;-50
2022/09/26 04:24:23;;;;;;;19.10;11.68;;;;;;;;;;5092052;28;20056;-49
2022/09/26 04:26:52;;;;;;;16.70;10.45;;;;;;;;;;5092601;28;20052;-50
2022/09/26 04:29:23;;;;;;;21.40;10.88;;;;;;;;;;5092500;28;20097;-49
2022/09/26 04:31:53;;;;;;;18.15;10.85;;;;;;;;;;5091738;28;20044;-50
2022/09/26 04:34:23;;;;;;;18.85;10.05;;;;;;;;;;5091859;28;20083;-49
2022/09/26 04:36:52;;;;;;;17.88;10.25;;;;;;;;;;5091954;28;20040;-50
2022/09/26 04:39:19;;;;;;;18.70;10.63;;;;;;;;;;5088268;28;20055;-50
2022/09/26 04:41:50;;;;;;;15.25;9.50;;;;;;;;;;5095606;28;20078;-50
2022/09/26 04:44:18;;;;;;;18.17;9.68;;;;;;;;;;5095909;28;20444;-49
2022/09/26 04:46:47;;;;;;;14.27;9.00;;;;;;;;;;5091965;28;20047;-51
2022/09/26 04:49:16;;;;;;;21.70;12.43;;;;;;;;;;5095861;28;20683;-50
2022/09/26 04:51:44;;;;;;;19.58;10.23;;;;;;;;;;5095096;28;20478;-52
2022/09/26 04:54:10;;;;;;;22.63;12.43;;;;;;;;;;5095729;28;20486;-52
2022/09/26 04:56:54;;;;;;;18.92;11.98;;;;;;;;;;5095349;28;20040;-49
2022/09/26 04:59:20;;;;;;;18.88;11.25;;;;;;;;;;5095848;28;20135;-52
2022/09/26 05:01:47;;;;;;;17.15;10.95;;;;;;;;;;5094939;28;20040;-49
2022/09/26 05:04:15;;;;;;;17.77;11.18;;;;;;;;;;5094480;28;20051;-49
2022/09/26 05:06:45;;;;;;;26.60;12.65;;;;;;;;;;5089158;28;20056;-49
2022/09/26 05:11:55;;;;;;;20.08;12.02;;;;;;;;;;5091464;28;20487;-49
2022/09/26 05:14:21;;;;;;;23.05;12.18;;;;;;;;;;5090793;28;20059;-48
2022/09/26 05:16:49;;;;;;;23.77;12.32;;;;;;;;;;5093719;28;20044;-49
2022/09/26 05:19:17;;;;;;;19.08;12.40;;;;;;;;;;5090384;28;20063;-49
2022/09/26 05:21:43;;;;;;;18.75;12.05;;;;;;;;;;5095257;28;20036;-49
2022/09/26 05:27:01;;;;;;;15.97;9.77;;;;;;;;;;5086821;28;20047;-51
2022/09/26 05:29:28;;;;;;;18.08;11.10;;;;;;;;;;5094755;28;20056;-49
2022/09/26 05:32:00;;;;;;;18.17;10.73;;;;;;;;;;5094891;28;20044;-50
2022/09/26 05:34:28;;;;;;;18.00;10.77;;;;;;;;;;5095230;28;20047;-49
2022/09/26 05:36:58;;;;;;;20.58;10.93;;;;;;;;;;5094886;28;20051;-49
2022/09/26 05:42:18;;;;;;;13.60;9.13;;;;;;;;;;5095030;28;20051;-52
2022/09/26 05:44:54;;;;;;;19.25;12.15;;;;;;;;;;5094900;28;20046;-52
2022/09/26 05:47:25;;;;;;;17.00;10.43;;;;;;;;;;5086419;28;20117;-51
2022/09/26 05:49:56;;;;;;;21.20;11.88;;;;;;;;;;5094707;28;20055;-49
2022/09/26 05:52:25;;;;;;;18.52;11.20;;;;;;;;;;5091724;28;20062;-52
2022/09/26 05:54:53;;;;;;;21.38;12.52;;;;;;;;;;5091361;28;20048;-49
2022/09/26 05:57:35;;;;;;;19.13;12.25;;;;;;;;;;5095023;28;20052;-49
2022/09/26 06:00:04;;;;;;;18.90;11.13;;;;;;;;;;5092765;28;20075;-49
2022/09/26 06:02:31;;;;;;;25.75;12.82;;;;;;;;;;5079239;28;20070;-50
2022/09/26 06:04:58;;;;;;;21.75;13.32;;;;;;;;;;5087084;28;20069;-49
2022/09/26 06:07:28;;;;;;;23.17;13.32;;;;;;;;;;5091516;28;20075;-49
2022/09/26 06:09:59;;;;;;;21.85;11.95;;;;;;;;;;5088846;28;20131;-49
2022/09/26 06:12:38;;;;;;;22.75;13.98;;;;;;;;;;5092707;28;20058;-49
2022/09/26 06:15:08;;;;;;;23.08;12.57;;;;;;;;;;5087498;28;20048;-49
2022/09/26 06:17:38;;;;;;;23.48;13.23;;;;;;;;;;5064938;28;20048;-49
2022/09/26 06:20:05;;;;;;;20.73;12.52;;;;;;;;;;5084587;28;20048;-48
2022/09/26 06:22:39;;;;;;;23.25;12.93;;;;;;;;;;5092241;28;20052;-51
2022/09/26 06:25:09;;;;;;;22.98;12.68;;;;;;;;;;5085596;28;20048;-48
2022/09/26 06:27:41;;;;;;;21.42;12.10;;;;;;;;;;5086283;28;20044;-46
2022/09/26 06:30:10;;;;;;;20.92;11.93;;;;;;;;;;5088355;28;20044;-51
2022/09/26 06:32:38;;;;;;;23.20;12.65;;;;;;;;;;5088104;28;20415;-51
2022/09/26 06:35:07;;;;;;;19.70;12.18;;;;;;;;;;5089825;28;20083;-49
2022/09/26 06:37:34;;;;;;;22.38;13.18;;;;;;;;;;5086851;28;20047;-48
2022/09/26 06:40:02;;;;;;;22.50;12.65;;;;;;;;;;5089759;28;20460;-48
2022/09/26 06:42:35;;;;;;;22.95;12.60;;;;;;;;;;5090237;28;20032;-47
2022/09/26 06:45:06;;;;;;;20.50;12.88;;;;;;;;;;5083420;28;20048;-50
2022/09/26 06:47:37;;;;;;;20.95;13.23;;;;;;;;;;5092171;28;20063;-48
2022/09/26 06:50:05;;;;;;;18.88;12.30;;;;;;;;;;5092518;28;20044;-48
2022/09/26 06:52:36;;;;;;;23.38;13.90;;;;;;;;;;5092430;28;20044;-48
2022/09/26 06:55:03;;;;;;;19.17;12.95;;;;;;;;;;5092569;28;20457;-46
2022/09/26 07:00:19;;;;;;;18.95;11.38;;;;;;;;;;5092714;28;20047;-47
2022/09/26 07:02:54;;;;;;;24.92;13.68;;;;;;;;;;5091006;28;20047;-47
2022/09/26 07:05:23;;;;;;;23.63;13.13;;;;;;;;;;5088557;28;20433;-48
2022/09/26 07:07:52;;;;;;;21.55;13.48;;;;;;;;;;5090088;28;20052;-47
2022/09/26 07:10:23;;;;;;;21.60;13.18;;;;;;;;;;5091930;28;20048;-45
2022/09/26 07:12:52;;;;;;;22.73;13.95;;;;;;;;;;5088591;28;20056;-46
2022/09/26 07:15:23;;;;;;;20.77;13.30;;;;;;;;;;5092266;28;20518;-50
2022/09/26 07:17:51;;;;;;;22.50;13.85;;;;;;;;;;5082945;28;20047;-52
2022/09/26 07:20:20;;;;;;;22.08;13.80;;;;;;;;;;5089578;28;20144;-49
2022/09/26 07:22:50;;;;;;;21.05;13.30;;;;;;;;;;5080613;28;20042;-48
2022/09/26 07:25:20;;;;;;;20.15;12.27;;;;;;;;;;5092777;28;20127;-49
2022/09/26 07:27:57;;;;;;;25.30;12.52;;;;;;;;;;5091466;28;20071;-50
2022/09/26 07:30:31;;;;;;;21.83;13.00;;;;;;;;;;5091257;28;20052;-51
2022/09/26 07:33:01;;;;;;;20.63;13.30;;;;;;;;;;5091501;28;20051;-45
2022/09/26 07:35:31;;;;;;;25.98;13.45;;;;;;;;;;5091949;28;20047;-47
2022/09/26 07:37:59;;;;;;;21.35;13.48;;;;;;;;;;5092164;28;20072;-45
2022/09/26 07:40:30;;;;;;;21.35;12.35;;;;;;;;;;5087048;28;20048;-47
2022/09/26 07:42:59;;;;;;;19.15;11.55;;;;;;;;;;5092337;28;20044;-47
2022/09/26 07:51:03;;;;;;;23.58;13.52;;;;;;;;;;5091545;28;20051;-47
2022/09/26 07:53:32;;;;;;;23.25;13.05;;;;;;;;;;5088968;28;20044;-45
2022/09/26 07:56:09;;;;;;;19.30;12.02;;;;;;;;;;5089122;28;20551;-49
2022/09/26 07:58:45;;;;;;;21.52;12.88;;;;;;;;;;5089455;28;20076;-50
2022/09/26 08:01:20;;;;;;;20.98;13.27;;;;;;;;;;5085335;28;20441;-46
2022/09/26 08:03:53;;;;;;;20.47;12.67;;;;;;;;;;5081995;28;20044;-46
2022/09/26 08:06:22;;;;;;;19.52;11.65;;;;;;;;;;5090089;28;20424;-46
2022/09/26 08:08:52;;;;;;;18.48;11.98;;;;;;;;;;5086916;28;20106;-47
2022/09/26 08:11:21;;;;;;;18.40;12.38;;;;;;;;;;5086749;28;20044;-49
2022/09/26 08:13:51;;;;;;;15.93;11.40;;;;;;;;;;5082627;28;20079;-47
2022/09/26 08:16:22;;;;;;;21.20;13.75;;;;;;;;;;5091866;28;20048;-46
2022/09/26 08:18:52;;;;;;;19.83;11.85;;;;;;;;;;5092862;28;20044;-46
2022/09/26 08:21:22;;;;;;;16.48;11.07;;;;;;;;;;5083673;28;20044;-48
2022/09/26 08:23:50;;;;;;;18.95;12.70;;;;;;;;;;5094819;28;20144;-46
2022/09/26 08:26:22;;;;;;;19.10;12.60;;;;;;;;;;5082644;28;20048;-47
2022/09/26 08:28:52;;;;;;;22.75;14.63;;;;;;;;;;5090613;28;20052;-48
2022/09/26 08:31:22;;;;;;;20.05;13.40;;;;;;;;;;5092673;28;20101;-47
2022/09/26 08:33:52;;;;;;;20.02;12.63;;;;;;;;;;5095435;28;20058;-48
2022/09/26 08:36:21;;;;;;;15.60;11.75;;;;;;;;;;5079720;28;20048;-47
2022/09/26 08:38:51;;;;;;;18.88;12.10;;;;;;;;;;5090552;28;20125;-47
2022/09/26 08:41:31;;;;;;;18.85;11.38;;;;;;;;;;5094471;28;20453;-48
2022/09/26 08:44:03;;;;;;;17.00;12.43;;;;;;;;;;5076416;28;20048;-46
2022/09/26 08:46:49;;;;;;;18.05;12.18;;;;;;;;;;5083905;28;20130;-47
2022/09/26 08:49:31;;;;;;;16.80;11.75;;;;;;;;;;5086379;28;20575;-47
2022/09/26 08:52:04;;;;;;;16.80;11.68;;;;;;;;;;5088568;28;20040;-47
2022/09/26 08:54:41;;;;;;;26.00;12.88;;;;;;;;;;5091697;28;20075;-47
2022/09/26 08:57:16;;;;;;;16.05;10.85;;;;;;;;;;5095321;28;20054;-45
2022/09/26 08:59:56;;;;;;;;;;;;;;;;;;5084451;28;20060;-47
2022/09/26 09:02:30;;;;;;;18.65;10.80;;;;;;;;;;5094005;28;19954;-51
2022/09/26 09:05:06;;;;;;;18.52;11.20;;;;;;;;;;5090427;28;20053;-48
2022/09/26 09:07:34;;;;;;;19.48;12.50;;;;;;;;;;5095063;28;20063;-47
2022/09/26 09:10:09;;;;;;;19.42;12.13;;;;;;;;;;5090460;28;20051;-47
2022/09/26 09:12:48;;;;;;;17.75;11.85;;;;;;;;;;5091061;28;20055;-48
2022/09/26 09:15:21;;;;;;;18.55;12.68;;;;;;;;;;5092489;28;20554;-47
2022/09/26 09:17:56;;;;;;;16.95;10.57;;;;;;;;;;5085519;28;20048;-46
2022/09/26 09:20:31;;;;;;;17.10;10.40;;;;;;;;;;5094302;28;20085;-45
2022/09/26 09:23:09;;;;;;;21.38;11.60;;;;;;;;;;5087932;28;20037;-47
2022/09/26 09:25:40;;;;;;;23.02;10.73;;;;;;;;;;5073007;28;20569;-47
2022/09/26 09:28:16;;;;;;;17.75;13.38;;;;;;;;;;5073694;28;20048;-48
2022/09/26 09:30:53;;;;;;;14.18;10.00;;;;;;;;;;5074237;28;20091;-49
2022/09/26 09:33:36;;;;;;;14.95;10.68;;;;;;;;;;5073977;28;20052;-50
2022/09/26 09:36:12;;;;;;;15.07;10.80;;;;;;;;;;5068121;28;20116;-49
2022/09/26 09:38:44;;;;;;;13.98;9.95;;;;;;;;;;5070911;28;20050;-48
2022/09/26 09:41:14;;;;;;;12.70;10.70;;;;;;;;;;5073460;28;20533;-51
2022/09/26 09:43:51;;;;;;;13.15;9.93;;;;;;;;;;5070345;28;20056;-51
2022/09/26 09:46:23;;;;;;;12.02;8.27;;;;;;;;;;5068934;28;20469;-48
2022/09/26 09:48:56;;;;;;;12.30;8.98;;;;;;;;;;5073849;28;20491;-48
2022/09/26 09:51:30;;;;;;;12.82;7.22;;;;;;;;;;5073437;28;20488;-51
2022/09/26 09:54:07;;;;;;;19.45;11.02;;;;;;;;;;5067277;28;20048;-49
2022/09/26 09:56:57;;;;;;;9.88;6.72;;;;;;;;;;5068934;28;20053;-48
2022/09/26 09:59:43;;;;;;;9.98;5.97;;;;;;;;;;5072686;28;20063;-52
2022/09/26 10:02:18;;;;;;;9.23;5.28;;;;;;;;;;5072301;28;20052;-49
2022/09/26 10:04:58;;;;;;;;;;;;;;;;;;5071835;28;20064;-48
2022/09/26 10:07:40;;;;;;;8.30;5.40;;;;;;;;;;5070753;28;20724;-48
2022/09/26 10:10:12;;;;;;;7.80;5.72;;;;;;;;;;5070601;28;20048;-48
2022/09/26 10:12:42;;;;;;;13.68;6.70;;;;;;;;;;5067345;28;20041;-50
2022/09/26 10:15:18;;;;;;;10.10;5.75;;;;;;;;;;5070489;28;20102;-49
2022/09/26 10:17:59;;;;;;;8.15;5.97;;;;;;;;;;5068632;28;20072;-48
2022/09/26 10:20:41;;;;;;;9.13;5.32;;;;;;;;;;5069693;28;20044;-47
2022/09/26 10:23:21;;;;;;;7.80;4.90;;;;;;;;;;5067707;28;20044;-47
2022/09/26 10:25:52;;;;;;;9.25;5.30;;;;;;;;;;5070442;28;20056;-47
2022/09/26 10:28:25;;;;;;;6.63;4.82;;;;;;;;;;5069787;28;20118;-49
2022/09/26 10:31:09;;;;;;;9.23;4.88;;;;;;;;;;5066423;28;20077;-47
2022/09/26 10:33:36;;;;;;;7.80;5.32;;;;;;;;;;5072123;28;20056;-48
2022/09/26 10:36:15;;;;;;;9.10;4.55;;;;;;;;;;5061418;28;20052;-49
2022/09/26 10:41:50;;;;;;;8.23;4.72;;;;;;;;;;5066883;28;20052;-48
2022/09/26 10:44:23;;;;;;;8.23;4.57;;;;;;;;;;5057565;28;20048;-48
2022/09/26 10:46:52;;;;;;;7.97;5.32;;;;;;;;;;5063487;28;20056;-48
2022/09/26 10:49:23;;;;;;;10.15;5.70;;;;;;;;;;5065444;28;20483;-48
2022/09/26 10:51:55;;;;;;;9.18;5.75;;;;;;;;;;5063567;28;20693;-49
2022/09/26 10:54:32;;;;;;;7.40;4.70;;;;;;;;;;5068491;28;20048;-49
2022/09/26 10:57:00;;;;;;;10.75;4.72;;;;;;;;;;5068020;28;20049;-49
2022/09/26 10:59:37;;;;;;;6.82;4.30;;;;;;;;;;5070488;28;20079;-51
2022/09/26 11:02:05;;;;;;;5.00;3.70;;;;;;;;;;5067140;28;20044;-49
2022/09/26 11:07:23;;;;;;;8.73;3.33;;;;;;;;;;5071175;28;20052;-49
2022/09/26 11:10:00;;;;;;;5.88;3.40;;;;;;;;;;5071344;28;20135;-51
2022/09/26 11:12:32;;;;;;;8.40;3.30;;;;;;;;;;5060785;28;20059;-50
2022/09/26 11:15:02;;;;;;;7.15;3.50;;;;;;;;;;5066190;28;20048;-49
2022/09/26 11:17:48;;;;;;;5.15;3.20;;;;;;;;;;5067892;28;20106;-49
2022/09/26 11:20:26;;;;;;;5.50;3.75;;;;;;;;;;5067236;28;20052;-50
2022/09/26 11:23:01;;;;;;;7.57;3.40;;;;;;;;;;5055770;28;20043;-48
2022/09/26 11:25:38;;;;;;;8.55;3.80;;;;;;;;;;5075441;28;20392;-52
2022/09/26 11:28:10;;;;;;;11.88;4.00;;;;;;;;;;5084968;28;20075;-49
2022/09/26 11:30:41;;;;;;;6.70;3.75;;;;;;;;;;5080999;28;20059;-49
2022/09/26 11:33:17;;;;;;;4.78;3.10;;;;;;;;;;5085971;28;20044;-49
2022/09/26 11:35:52;;;;;;;7.30;3.92;;;;;;;;;;5085939;28;20155;-47
2022/09/26 11:38:37;;;;;;;;;;;;;;;;;;5089636;28;20055;-48
2022/09/26 11:41:35;;;;;;;6.53;3.42;;;;;;;;;;5090279;28;19924;-49
2022/09/26 11:44:22;;;;;;;8.95;3.90;;;;;;;;;;5081833;28;20044;-47
2022/09/26 11:46:59;;;;;;;5.60;3.47;;;;;;;;;;5080602;28;20044;-48
2022/09/26 11:49:41;;;;;;;5.15;3.47;;;;;;;;;;5080894;28;20048;-48
2022/09/26 11:52:25;;;;;;;6.95;4.18;;;;;;;;;;5076847;28;20044;-48
2022/09/26 11:54:59;;;;;;;5.65;3.25;;;;;;;;;;5086384;28;20467;-48
2022/09/26 11:57:48;;;;;;;8.38;3.63;;;;;;;;;;5082780;28;20047;-48
2022/09/26 12:00:23;;;;;;;6.07;3.60;;;;;;;;;;5090269;28;20056;-48
2022/09/26 12:03:13;;;;;;;6.85;3.67;;;;;;;;;;5086112;28;20040;-51
2022/09/26 12:05:58;;;;;;;7.65;4.40;;;;;;;;;;5082296;28;20059;-47
2022/09/26 12:08:33;;;;;;;8.73;4.43;;;;;;;;;;5086823;28;20080;-48
2022/09/26 12:11:04;;;;;;;8.70;4.57;;;;;;;;;;5085393;28;20283;-49
2022/09/26 12:13:41;;;;;;;7.35;3.92;;;;;;;;;;5091089;28;20075;-48
2022/09/26 12:16:13;;;;;;;5.97;3.20;;;;;;;;;;5087228;28;20484;-48
2022/09/26 12:19:08;;;;;;;7.60;3.90;;;;;;;;;;5089346;28;20051;-51
2022/09/26 12:24:42;;;;;;;7.32;4.10;;;;;;;;;;5084895;28;20063;-50
2022/09/26 12:27:16;;;;;;;8.38;3.25;;;;;;;;;;5081445;28;20380;-49
2022/09/26 12:30:01;;;;;;;7.45;3.85;;;;;;;;;;5085341;28;20373;-48
2022/09/26 12:32:50;;;;;;;5.82;3.25;;;;;;;;;;5086685;28;20151;-48
2022/09/26 12:35:27;;;;;;;9.35;3.42;;;;;;;;;;5079391;28;20384;-49
2022/09/26 12:38:12;;;;;;;6.97;3.40;;;;;;;;;;5090868;28;20068;-47
2022/09/26 12:40:48;;;;;;;6.30;3.72;;;;;;;;;;5088485;28;20059;-48
2022/09/26 12:44:01;;;;;;;8.05;3.55;;;;;;;;;;5084653;28;20055;-48
2022/09/26 12:46:39;;;;;;;5.63;3.20;;;;;;;;;;5076960;28;20732;-49
2022/09/26 12:49:24;;;;;;;5.68;3.20;;;;;;;;;;5081334;28;20079;-48
2022/09/26 12:51:53;;;;;;;6.80;3.03;;;;;;;;;;5077465;28;20059;-50
2022/09/26 12:54:31;;;;;;;5.80;3.70;;;;;;;;;;5073115;28;20048;-47
2022/09/26 12:57:03;;;;;;;6.30;3.58;;;;;;;;;;5080343;28;20112;-48
2022/09/26 12:59:48;;;;;;;6.90;3.63;;;;;;;;;;5090987;28;20059;-47
2022/09/26 13:02:26;;;;;;;;;;;;;;;;;;5091869;28;20059;-47
2022/09/26 13:05:10;;;;;;;9.63;3.97;;;;;;;;;;5094061;28;19920;-48
2022/09/26 13:07:52;;;;;;;5.78;3.40;;;;;;;;;;5085107;28;20089;-50
2022/09/26 13:10:28;;;;;;;6.53;3.28;;;;;;;;;;5078774;22;20075;-91
2022/09/26 13:13:09;;;;;;;5.35;3.28;;;;;;;;;;5028016;28;20160;-92
2022/09/26 13:15:42;;;;;;;7.63;3.80;;;;;;;;;;5030458;28;20045;-91
2022/09/26 13:21:13;;;;;;;9.38;3.75;;;;;;;;;;5032830;28;20040;-92
2022/09/26 13:23:42;;;;;;;6.45;3.08;;;;;;;;;;5034457;28;20045;-93
2022/09/26 13:26:13;;;;;;;5.38;3.35;;;;;;;;;;5024059;28;20056;-92
2022/09/26 13:28:43;;;;;;;10.07;4.35;;;;;;;;;;5036557;28;20060;-92
2022/09/26 13:31:11;;;;;;;6.30;4.22;;;;;;;;;;5035369;28;20046;-92
2022/09/26 13:33:40;;;;;;;9.18;4.22;;;;;;;;;;5037386;28;20049;-91
2022/09/26 13:36:08;;;;;;;9.02;4.57;;;;;;;;;;5038393;28;20045;-91
2022/09/26 13:38:42;;;;;;;7.07;4.00;;;;;;;;;;5037196;28;20049;-91
2022/09/26 13:41:26;;;;;;;8.52;4.35;;;;;;;;;;5036516;28;20360;-92
2022/09/26 13:44:00;;;;;;;7.72;4.00;;;;;;;;;;5021963;28;20041;-91
2022/09/26 13:46:31;;;;;;;9.32;3.67;;;;;;;;;;5038715;28;20057;-91
2022/09/26 13:49:00;;;;;;;8.35;4.03;;;;;;;;;;5037770;28;20075;-91
2022/09/26 13:51:32;;;;;;;6.85;4.25;;;;;;;;;;5023129;28;20137;-92
2022/09/26 13:54:02;;;;;;;5.70;3.78;;;;;;;;;;5035113;28;20046;-94
2022/09/26 13:56:42;;;;;;;7.28;4.03;;;;;;;;;;5051685;28;20084;-93
2022/09/26 13:59:24;;;;;;;6.20;3.50;;;;;;;;;;5030698;28;20115;-92
2022/09/26 14:02:10;;;;;;;7.47;3.80;;;;;;;;;;5043567;28;20049;-92
2022/09/26 14:04:36;;;;;;;7.40;4.05;;;;;;;;;;5045347;28;20081;-92
2022/09/26 14:09:22;;;;;;;7.47;3.88;;;;;;;;;;5044815;28;20069;-92
2022/09/26 14:09:55;;;;;;;9.23;3.90;;;;;;;;;;5043815;28;20049;-91
2022/09/26 14:15:21;;;;;;;6.55;3.05;;;;;;;;;;5060333;28;20076;-92
2022/09/26 14:18:06;;;;;;;5.93;3.57;;;;;;;;;;5038178;28;20128;-92
2022/09/26 14:20:37;;;;;;;5.05;2.72;;;;;;;;;;5047011;28;20057;-92
2022/09/26 14:23:03;;;;;;;5.45;3.13;;;;;;;;;;5044323;28;20046;-93
2022/09/26 14:25:54;;;;;;;5.65;3.40;;;;;;;;;;5045489;28;20057;-91
2022/09/26 14:28:29;;;;;;;4.72;2.63;;;;;;;;;;5047477;28;20082;-94
2022/09/26 14:31:09;;;;;;;6.43;3.05;;;;;;;;;;5057152;28;20033;-93
2022/09/26 14:33:40;;;;;;;4.70;2.60;;;;;;;;;;5059967;28;20025;-93
2022/09/26 14:36:36;;;;;;;6.38;3.78;;;;;;;;;;5055435;28;20032;-94
2022/09/26 14:44:37;;;;;;;5.03;2.00;;;;;;;;;;5058065;28;20053;-94
2022/09/26 14:47:07;;;;;;;5.97;2.30;;;;;;;;;;5053523;23;20049;-47
2022/09/26 14:49:34;;;;;;;11.32;2.72;;;;;;;;;;5013874;28;20093;-47
2022/09/26 14:52:04;;;;;;;4.85;2.30;;;;;;;;;;5014016;28;20053;-50
2022/09/26 14:54:35;;;;;;;5.00;2.45;;;;;;;;;;5009802;28;20046;-48
2022/09/26 14:57:04;;;;;;;5.38;2.70;;;;;;;;;;5013885;28;20137;-48
2022/09/26 14:59:39;;;;;;;5.80;2.58;;;;;;;;;;5014103;28;20081;-47
2022/09/26 15:02:24;;;;;;;4.93;2.40;;;;;;;;;;5014201;28;20538;-50
2022/09/26 15:05:00;;;;;;;5.82;2.55;;;;;;;;;;5002411;28;20046;-48
2022/09/26 15:07:33;;;;;;;6.43;2.47;;;;;;;;;;5013188;28;20085;-47
2022/09/26 15:10:02;;;;;;;6.20;2.45;;;;;;;;;;5013447;28;20053;-47
2022/09/26 15:12:37;;;;;;;3.42;1.70;;;;;;;;;;5010662;28;20054;-47
2022/09/26 15:15:04;;;;;;;;;;;;;;;;;;5013550;28;20050;-47
2022/09/26 15:17:32;;;;;;;5.25;1.83;;;;;;;;;;5011946;28;19921;-47
2022/09/26 15:20:04;;;;;;;3.95;2.10;;;;;;;;;;5013430;28;20058;-47
2022/09/26 15:22:31;;;;;;;4.25;1.88;;;;;;;;;;5010044;28;20144;-48
2022/09/26 15:25:07;;;;;;;4.53;2.17;;;;;;;;;;5012196;28;20054;-49
2022/09/26 15:27:34;;;;;;;6.75;2.00;;;;;;;;;;5012639;28;20442;-49
2022/09/26 15:30:02;;;;;;;5.25;1.80;;;;;;;;;;5013670;28;20085;-49
2022/09/26 15:32:29;;;;;;;4.22;1.92;;;;;;;;;;5010072;28;20088;-46
2022/09/26 15:34:55;;;;;;;6.13;2.15;;;;;;;;;;5013591;28;20050;-47
2022/09/26 15:37:23;;;;;;;5.68;2.15;;;;;;;;;;5012051;28;20057;-49
2022/09/26 15:39:49;;;;;;;8.93;2.28;;;;;;;;;;5012230;28;20046;-50
2022/09/26 15:45:22;;;;;;;5.75;1.80;;;;;;;;;;5000153;28;20167;-50